Time;durP1;ratioP1;P1;durP2;ratioP2;P2;SDS_P1;SDS_P2;PMS_P1;PMS_P2;Temp;Humidity;BMP_temperature;BMP_pressure;BME280_temperature;BME280_humidity;BME280_pressure;Samples;Min_cycle;Max_cycle;Signal;HPM_P1;HPM_P2
2022/01/20 00:00:13;;;;;;;;;;;22.10;44.70;;;;;;5032707;28;19960;-41
2022/01/20 00:02:41;;;;;;;;;;;22.10;44.70;;;;;;5032490;28;20063;-40
2022/01/20 00:27:10;;;;;;;;;;;22.10;44.70;;;;;;5006484;28;19973;-41
2022/01/20 00:35:12;;;;;;;;;;;22.10;44.70;;;;;;5051649;28;19928;-40
2022/01/20 00:37:39;;;;;;;;;;;22.10;44.70;;;;;;5052125;28;20371;-45
2022/01/20 00:40:07;;;;;;;;;;;22.10;44.70;;;;;;5071835;28;20022;-40
2022/01/20 00:42:34;;;;;;;;;;;22.10;44.70;;;;;;5071888;28;19960;-43
2022/01/20 00:45:02;;;;;;;;;;;22.10;44.70;;;;;;5071747;28;19924;-42
2022/01/20 00:47:29;;;;;;;;;;;22.10;44.70;;;;;;5072342;28;19928;-42
2022/01/20 00:49:56;;;;;;;;;;;22.10;44.70;;;;;;5071904;28;19975;-41
2022/01/20 00:52:23;;;;;;;;;;;22.10;44.70;;;;;;5071458;28;19986;-42
2022/01/20 00:54:50;;;;;;;;;;;22.10;44.70;;;;;;5090240;27;19923;-41
2022/01/20 00:57:16;;;;;;;;;;;22.10;44.70;;;;;;5135045;27;19931;-41
2022/01/20 00:59:44;;;;;;;;;;;22.10;44.70;;;;;;5134723;28;19931;-42
2022/01/20 01:02:11;;;;;;;;;;;22.10;44.70;;;;;;5135015;28;19923;-41
2022/01/20 01:04:39;;;;;;;;;;;22.10;44.70;;;;;;5135533;28;19967;-43
2022/01/20 01:07:35;;;;;;;;;;;22.10;44.70;;;;;;5134926;28;19924;-45
2022/01/20 01:10:03;;;;;;;;;;;22.10;44.70;;;;;;5133939;28;20327;-42
2022/01/20 01:12:41;;;;;;;;;;;22.10;44.70;;;;;;5134584;28;19968;-43
2022/01/20 01:15:15;;;;;;;;;;;22.10;44.70;;;;;;5134549;28;19976;-42
2022/01/20 01:20:29;;;;;;;;;;;22.10;44.70;;;;;;5134459;28;19927;-45
2022/01/20 01:22:56;;;;;;;;;;;22.10;44.70;;;;;;5134322;28;19924;-43
2022/01/20 01:25:23;;;;;;;;;;;22.10;44.70;;;;;;5133779;28;20276;-45
2022/01/20 01:27:51;;;;;;;;;;;22.10;44.70;;;;;;5134436;28;19945;-46
2022/01/20 01:32:50;;;;;;;;;;;22.10;44.70;;;;;;5134676;28;19923;-42
2022/01/20 01:35:20;;;;;;;;;;;22.10;44.70;;;;;;5134649;28;19923;-41
2022/01/20 01:40:14;;;;;;;;;;;22.10;44.70;;;;;;5133568;28;19933;-42
2022/01/20 01:42:48;;;;;;;;;;;22.10;44.70;;;;;;5134608;28;19970;-45
2022/01/20 01:45:16;;;;;;;;;;;22.10;44.70;;;;;;5135193;27;19924;-46
2022/01/20 01:47:45;;;;;;;;;;;22.10;44.70;;;;;;5138096;27;19976;-44
2022/01/20 01:50:13;;;;;;;;;;;22.10;44.70;;;;;;5138438;27;19927;-43
2022/01/20 01:52:40;;;;;;;;;;;22.10;44.70;;;;;;5137946;27;20426;-52
2022/01/20 01:55:07;;;;;;;;;;;22.10;44.70;;;;;;5137256;27;20323;-42
2022/01/20 01:57:35;;;;;;;;;;;22.10;44.70;;;;;;5138963;27;19923;-44
2022/01/20 02:00:04;;;;;;;;;;;22.10;44.70;;;;;;5138308;27;19959;-44
2022/01/20 02:02:31;;;;;;;;;;;22.10;44.70;;;;;;5137937;27;19930;-46
2022/01/20 02:04:58;;;;;;;;;;;22.10;44.70;;;;;;5137130;27;20382;-42
2022/01/20 02:07:55;;;;;;;;;;;22.10;44.70;;;;;;5137891;27;19963;-41
2022/01/20 02:18:44;;;;;;;;;;;22.10;44.70;;;;;;5117329;28;20006;-42
2022/01/20 02:21:13;;;;;;;;;;;22.00;44.60;;;;;;5116999;28;20356;-42
2022/01/20 02:23:41;;;;;;;;;;;22.00;44.60;;;;;;5116726;28;19946;-41
2022/01/20 02:26:08;;;;;;;;;;;22.00;44.60;;;;;;5117020;28;19924;-41
2022/01/20 02:28:35;;;;;;;;;;;22.00;44.70;;;;;;5116876;28;19923;-40
2022/01/20 02:31:02;;;;;;;;;;;22.00;44.60;;;;;;5117695;28;20006;-48
2022/01/20 02:33:31;;;;;;;;;;;22.00;44.60;;;;;;5117124;28;20283;-45
2022/01/20 02:36:05;;;;;;;;;;;22.00;44.60;;;;;;5116983;28;19923;-43
2022/01/20 02:38:38;;;;;;;;;;;22.00;44.60;;;;;;5117580;28;19963;-41
2022/01/20 02:46:38;;;;;;;;;;;22.00;44.60;;;;;;5137455;27;19923;-44
2022/01/20 02:49:07;;;;;;;;;;;22.00;44.60;;;;;;5137260;27;19927;-46
2022/01/20 02:51:35;;;;;;;;;;;22.00;44.60;;;;;;5136807;27;19924;-42
2022/01/20 02:54:03;;;;;;;;;;;22.00;44.60;;;;;;5136440;27;20340;-45
2022/01/20 02:56:30;;;;;;;;;;;22.00;44.60;;;;;;5136040;27;19992;-44
2022/01/20 02:58:57;;;;;;;;;;;22.00;44.60;;;;;;5118839;27;20298;-45
2022/01/20 03:01:24;;;;;;;;;;;22.00;44.60;;;;;;5137138;27;19923;-41
2022/01/20 03:03:51;;;;;;;;;;;22.00;44.60;;;;;;5137105;27;20344;-43
2022/01/20 03:06:18;;;;;;;;;;;22.00;44.60;;;;;;5136721;27;19924;-47
2022/01/20 03:08:45;;;;;;;;;;;22.00;44.60;;;;;;5136666;27;19976;-43
2022/01/20 03:11:13;;;;;;;;;;;22.00;44.60;;;;;;5135676;27;19923;-41
2022/01/20 03:13:39;;;;;;;;;;;22.00;44.60;;;;;;5136570;27;19923;-43
2022/01/20 03:16:07;;;;;;;;;;;22.00;44.60;;;;;;5136758;27;20328;-42
2022/01/20 03:18:34;;;;;;;;;;;22.00;44.60;;;;;;5136701;27;19972;-43
2022/01/20 03:21:01;;;;;;;;;;;22.00;44.70;;;;;;5136343;27;19972;-43
2022/01/20 03:23:28;;;;;;;;;;;22.00;44.70;;;;;;5136186;27;19978;-44
2022/01/20 03:25:55;;;;;;;;;;;22.00;44.60;;;;;;5117323;27;19962;-41
2022/01/20 03:28:22;;;;;;;;;;;22.00;44.60;;;;;;5136517;27;19972;-43
2022/01/20 03:30:49;;;;;;;;;;;22.00;44.60;;;;;;5118352;27;19924;-43
2022/01/20 03:33:16;;;;;;;;;;;22.00;44.60;;;;;;5118347;27;19924;-44
2022/01/20 03:35:43;;;;;;;;;;;22.00;44.60;;;;;;5136398;27;19969;-42
2022/01/20 03:38:10;;;;;;;;;;;22.00;44.60;;;;;;5136069;27;19930;-41
2022/01/20 03:40:37;;;;;;;;;;;22.00;44.60;;;;;;5134935;27;19923;-43
2022/01/20 03:43:04;;;;;;;;;;;22.00;44.60;;;;;;5137161;27;19972;-41
2022/01/20 03:45:31;;;;;;;;;;;22.00;44.60;;;;;;5136279;27;19966;-44
2022/01/20 03:48:07;;;;;;;;;;;22.00;44.60;;;;;;5136069;27;19931;-41
2022/01/20 03:53:20;;;;;;;;;;;22.00;44.60;;;;;;5135655;27;19923;-43
2022/01/20 03:55:47;;;;;;;;;;;22.00;44.60;;;;;;5135257;27;20002;-41
2022/01/20 03:58:15;;;;;;;;;;;22.00;44.60;;;;;;5135958;27;19966;-41
2022/01/20 04:00:43;;;;;;;;;;;22.00;44.60;;;;;;5136084;27;19923;-42
2022/01/20 04:03:13;;;;;;;;;;;22.00;44.50;;;;;;5135611;27;20337;-45
2022/01/20 04:05:56;;;;;;;;;;;22.00;44.50;;;;;;5135912;27;19927;-42
2022/01/20 04:08:25;;;;;;;;;;;22.00;44.60;;;;;;5135203;27;20025;-44
2022/01/20 04:10:52;;;;;;;;;;;22.00;44.60;;;;;;5134399;27;19923;-41
2022/01/20 04:13:19;;;;;;;;;;;22.00;44.60;;;;;;5135730;27;19972;-41
2022/01/20 04:15:48;;;;;;;;;;;22.00;44.50;;;;;;5135610;27;19928;-42
2022/01/20 04:18:21;;;;;;;;;;;22.00;44.60;;;;;;5135205;27;20014;-41
2022/01/20 04:20:48;;;;;;;;;;;22.00;44.50;;;;;;5135141;27;19923;-41
2022/01/20 04:23:15;;;;;;;;;;;22.00;44.50;;;;;;5135060;27;19972;-43
2022/01/20 04:25:42;;;;;;;;;;;22.00;44.60;;;;;;5134348;27;19965;-41
2022/01/20 04:28:09;;;;;;;;;;;22.00;44.50;;;;;;5135145;27;20379;-41
2022/01/20 04:30:36;;;;;;;;;;;22.00;44.50;;;;;;5135427;27;19923;-41
2022/01/20 04:33:03;;;;;;;;;;;22.00;44.60;;;;;;5135091;27;19981;-43
2022/01/20 04:35:31;;;;;;;;;;;22.00;44.50;;;;;;5134976;27;19948;-42
2022/01/20 04:37:58;;;;;;;;;;;22.00;44.50;;;;;;5135338;27;19923;-41
2022/01/20 04:40:25;;;;;;;;;;;22.00;44.50;;;;;;5134133;27;20079;-44
2022/01/20 04:42:53;;;;;;;;;;;22.00;44.50;;;;;;5135265;27;20390;-41
2022/01/20 04:45:30;;;;;;;;;;;22.00;44.50;;;;;;5135167;27;20421;-41
2022/01/20 04:48:15;;;;;;;;;;;22.00;44.50;;;;;;5134777;27;19975;-44
2022/01/20 04:59:03;;;;;;;;;;;22.00;44.50;;;;;;5134765;28;19978;-42
2022/01/20 05:01:30;;;;;;;;;;;22.00;44.50;;;;;;5134711;28;20397;-44
2022/01/20 05:04:00;;;;;;;;;;;22.00;44.50;;;;;;5135231;28;19969;-43
2022/01/20 05:06:28;;;;;;;;;;;22.00;44.50;;;;;;5134659;28;19931;-42
2022/01/20 05:08:54;;;;;;;;;;;22.00;44.50;;;;;;5134930;28;19959;-45
2022/01/20 05:11:21;;;;;;;;;;;22.00;44.50;;;;;;5133605;28;20441;-47
2022/01/20 05:13:48;;;;;;;;;;;22.00;44.50;;;;;;5134564;28;19967;-48
2022/01/20 05:16:15;;;;;;;;;;;22.00;44.50;;;;;;5134792;28;19975;-44
2022/01/20 05:18:42;;;;;;;;;;;22.00;44.50;;;;;;5134745;28;19966;-49
2022/01/20 05:21:09;;;;;;;;;;;22.00;44.50;;;;;;5118775;27;19923;-52
2022/01/20 05:23:36;;;;;;;;;;;21.90;44.50;;;;;;5120360;27;19923;-47
2022/01/20 05:26:03;;;;;;;;;;;22.00;44.50;;;;;;5138604;27;19927;-50
2022/01/20 05:28:30;;;;;;;;;;;21.90;44.50;;;;;;5138625;27;19969;-52
2022/01/20 05:30:59;;;;;;;;;;;22.00;44.50;;;;;;5138588;27;19976;-45
2022/01/20 05:33:26;;;;;;;;;;;22.00;44.50;;;;;;5138825;27;20007;-45
2022/01/20 05:35:53;;;;;;;;;;;21.90;44.50;;;;;;5138730;27;19966;-41
2022/01/20 05:38:21;;;;;;;;;;;21.90;44.50;;;;;;5138745;27;20332;-45
2022/01/20 05:40:48;;;;;;;;;;;21.90;44.50;;;;;;5138393;27;19969;-43
2022/01/20 05:43:15;;;;;;;;;;;21.90;44.50;;;;;;5119690;27;19927;-43
2022/01/20 05:45:42;;;;;;;;;;;21.90;44.50;;;;;;5138317;27;19923;-45
2022/01/20 05:48:17;;;;;;;;;;;21.90;44.50;;;;;;5138482;27;19967;-41
2022/01/20 05:50:44;;;;;;;;;;;21.90;44.50;;;;;;5138551;27;19935;-42
2022/01/20 05:53:11;;;;;;;;;;;21.90;44.50;;;;;;5138282;27;19923;-43
2022/01/20 05:55:42;;;;;;;;;;;21.90;44.50;;;;;;5138979;27;20288;-42
2022/01/20 05:58:09;;;;;;;;;;;21.90;44.50;;;;;;5118769;27;20417;-41
2022/01/20 06:00:37;;;;;;;;;;;21.90;44.50;;;;;;5138026;27;20018;-42
2022/01/20 06:05:50;;;;;;;;;;;21.90;44.50;;;;;;5137980;27;20386;-44
2022/01/20 06:08:17;;;;;;;;;;;21.90;44.50;;;;;;5137790;27;20421;-42
2022/01/20 06:10:44;;;;;;;;;;;21.90;44.50;;;;;;5138141;27;20022;-43
2022/01/20 06:13:11;;;;;;;;;;;21.90;44.50;;;;;;5136611;27;19970;-49
2022/01/20 06:15:38;;;;;;;;;;;21.90;44.50;;;;;;5137666;27;19927;-47
2022/01/20 06:18:06;;;;;;;;;;;21.90;44.50;;;;;;5137597;27;20357;-46
2022/01/20 06:20:33;;;;;;;;;;;21.90;44.50;;;;;;5137408;27;20299;-48
2022/01/20 06:23:00;;;;;;;;;;;21.90;44.40;;;;;;5129842;27;20889;-44
2022/01/20 06:25:31;;;;;;;;;;;21.90;44.50;;;;;;5124340;27;20340;-41
2022/01/20 06:27:59;;;;;;;;;;;21.90;44.50;;;;;;5114931;27;19950;-44
2022/01/20 06:30:26;;;;;;;;;;;21.90;44.50;;;;;;5107202;28;19959;-44
2022/01/20 06:32:54;;;;;;;;;;;21.90;44.50;;;;;;5116313;28;19931;-43
2022/01/20 06:35:21;;;;;;;;;;;21.90;44.50;;;;;;5124836;27;19938;-42
2022/01/20 06:37:48;;;;;;;;;;;21.90;44.50;;;;;;5136581;27;19966;-50
2022/01/20 06:40:15;;;;;;;;;;;21.90;44.50;;;;;;5136731;27;19923;-43
2022/01/20 06:42:42;;;;;;;;;;;21.90;44.50;;;;;;5136105;27;19931;-47
2022/01/20 06:45:11;;;;;;;;;;;21.90;44.50;;;;;;5117528;27;19924;-45
2022/01/20 06:47:38;;;;;;;;;;;21.90;44.50;;;;;;5115839;28;20015;-46
2022/01/20 06:50:06;;;;;;;;;;;21.90;44.50;;;;;;5116398;28;19924;-44
2022/01/20 06:52:33;;;;;;;;;;;21.90;44.50;;;;;;5116338;28;20275;-44
2022/01/20 06:55:00;;;;;;;;;;;21.90;44.50;;;;;;5116304;28;19924;-50
2022/01/20 06:57:27;;;;;;;;;;;21.90;44.50;;;;;;5121883;27;19927;-41
2022/01/20 06:59:54;;;;;;;;;;;21.90;44.50;;;;;;5136328;27;19927;-42
2022/01/20 07:02:21;;;;;;;;;;;21.90;44.50;;;;;;5136526;27;20006;-43
2022/01/20 07:04:48;;;;;;;;;;;21.90;44.50;;;;;;5136537;27;19924;-42
2022/01/20 07:07:15;;;;;;;;;;;21.90;44.50;;;;;;5136361;27;20410;-41
2022/01/20 07:09:43;;;;;;;;;;;21.90;44.50;;;;;;5136015;27;19977;-43
2022/01/20 07:12:10;;;;;;;;;;;21.90;44.50;;;;;;5135148;27;20009;-40
2022/01/20 07:14:38;;;;;;;;;;;21.90;44.50;;;;;;5130716;27;20283;-39
2022/01/20 07:17:05;;;;;;;;;;;21.90;44.50;;;;;;5097578;28;19923;-39
2022/01/20 07:19:33;;;;;;;;;;;21.90;44.50;;;;;;5114985;28;20264;-38
2022/01/20 07:22:00;;;;;;;;;;;21.90;44.50;;;;;;5097403;28;19923;-39
2022/01/20 07:24:29;;;;;;;;;;;21.90;44.60;;;;;;5115142;28;19930;-39
2022/01/20 07:26:57;;;;;;;;;;;21.90;44.60;;;;;;5115336;28;19959;-39
2022/01/20 07:29:25;;;;;;;;;;;21.90;44.70;;;;;;5114691;28;19971;-44
2022/01/20 07:31:53;;;;;;;;;;;21.90;44.60;;;;;;5115411;28;20386;-41
2022/01/20 07:34:23;;;;;;;;;;;21.80;44.60;;;;;;5115323;28;19924;-38
2022/01/20 07:36:57;;;;;;;;;;;21.80;44.60;;;;;;5115094;28;19924;-39
2022/01/20 07:39:24;;;;;;;;;;;21.80;44.60;;;;;;5114993;28;20012;-39
2022/01/20 07:41:52;;;;;;;;;;;21.80;44.70;;;;;;5115414;28;19977;-39
2022/01/20 07:44:20;;;;;;;;;;;21.90;44.80;;;;;;5114019;27;19980;-39
2022/01/20 07:46:48;;;;;;;;;;;21.80;44.70;;;;;;5135802;27;19974;-41
2022/01/20 07:49:15;;;;;;;;;;;21.80;44.70;;;;;;5116934;27;19927;-40
2022/01/20 07:51:43;;;;;;;;;;;21.80;44.80;;;;;;5135796;27;19976;-41
2022/01/20 07:54:11;;;;;;;;;;;21.80;44.80;;;;;;5135915;27;19971;-39
2022/01/20 07:56:40;;;;;;;;;;;21.80;44.80;;;;;;5135227;27;19924;-41
2022/01/20 07:59:08;;;;;;;;;;;21.80;44.90;;;;;;5116545;27;19923;-41
2022/01/20 08:01:35;;;;;;;;;;;21.80;44.90;;;;;;5134998;27;19923;-40
2022/01/20 08:04:02;;;;;;;;;;;21.80;44.90;;;;;;5135462;27;20014;-41
2022/01/20 08:06:29;;;;;;;;;;;21.80;45.00;;;;;;5135611;27;19963;-40
2022/01/20 08:08:56;;;;;;;;;;;21.80;45.00;;;;;;5135543;27;19923;-43
2022/01/20 08:11:23;;;;;;;;;;;21.80;45.00;;;;;;5116263;27;20013;-43
2022/01/20 08:13:50;;;;;;;;;;;21.80;45.00;;;;;;5134156;27;19966;-40
2022/01/20 08:16:17;;;;;;;;;;;21.80;45.00;;;;;;5134962;27;20302;-46
2022/01/20 08:18:44;;;;;;;;;;;21.80;45.00;;;;;;5134548;27;19927;-40
2022/01/20 08:21:12;;;;;;;;;;;21.80;45.10;;;;;;5134060;27;19973;-40
2022/01/20 08:23:39;;;;;;;;;;;21.80;45.10;;;;;;5134711;27;19930;-44
2022/01/20 08:26:07;;;;;;;;;;;21.80;45.10;;;;;;5134892;27;19923;-40
2022/01/20 08:28:34;;;;;;;;;;;21.80;45.20;;;;;;5133929;27;20099;-43
2022/01/20 08:31:01;;;;;;;;;;;21.80;45.20;;;;;;5134309;27;19928;-42
2022/01/20 08:33:28;;;;;;;;;;;21.80;45.20;;;;;;5134341;27;20319;-45
2022/01/20 08:35:55;;;;;;;;;;;21.80;45.30;;;;;;5116243;27;19930;-46
2022/01/20 08:38:22;;;;;;;;;;;21.80;45.90;;;;;;5116416;27;19972;-40
2022/01/20 08:40:49;;;;;;;;;;;21.80;45.40;;;;;;5134132;27;20046;-40
2022/01/20 08:43:16;;;;;;;;;;;21.90;45.50;;;;;;5133770;27;20336;-40
2022/01/20 08:45:44;;;;;;;;;;;21.80;45.40;;;;;;5134934;27;19970;-40
2022/01/20 08:48:13;;;;;;;;;;;21.80;45.50;;;;;;5134499;27;19996;-38
2022/01/20 08:50:41;;;;;;;;;;;21.90;45.60;;;;;;5116692;27;19928;-40
2022/01/20 08:53:09;;;;;;;;;;;21.90;45.50;;;;;;5133828;27;19923;-44
2022/01/20 08:55:37;;;;;;;;;;;21.90;45.50;;;;;;5134415;27;19923;-39
2022/01/20 08:58:05;;;;;;;;;;;21.90;45.60;;;;;;5132385;27;19923;-40
2022/01/20 09:00:33;;;;;;;;;;;21.90;45.60;;;;;;5114279;28;20275;-40
2022/01/20 09:03:00;;;;;;;;;;;21.90;45.60;;;;;;5095175;28;19931;-40
2022/01/20 09:05:27;;;;;;;;;;;21.90;45.60;;;;;;5114063;28;20374;-39
2022/01/20 09:07:54;;;;;;;;;;;21.90;45.60;;;;;;5114086;28;19927;-39
2022/01/20 09:10:21;;;;;;;;;;;21.90;45.70;;;;;;5113783;28;19997;-40
2022/01/20 09:15:35;;;;;;;;;;;21.90;45.70;;;;;;5134482;28;20290;-40
2022/01/20 09:18:04;;;;;;;;;;;21.90;45.70;;;;;;5133857;28;19927;-40
2022/01/20 09:20:34;;;;;;;;;;;21.90;45.70;;;;;;5134051;28;20011;-39
2022/01/20 09:23:02;;;;;;;;;;;21.90;45.80;;;;;;5133534;28;20452;-39
2022/01/20 09:25:29;;;;;;;;;;;21.90;45.70;;;;;;5116235;28;19930;-40
2022/01/20 09:27:56;;;;;;;;;;;21.90;45.70;;;;;;5134302;28;19931;-40
2022/01/20 09:30:24;;;;;;;;;;;21.90;45.70;;;;;;5133045;28;19928;-39
2022/01/20 09:33:28;;;;;;;;;;;22.00;45.60;;;;;;5133677;28;20436;-41
2022/01/20 09:35:46;;;;;;;;;;;22.00;45.60;;;;;;5130487;28;19969;-40
2022/01/20 09:38:13;;;;;;;;;;;22.00;46.10;;;;;;5133597;28;20370;-39
2022/01/20 09:40:40;;;;;;;;;;;22.00;45.50;;;;;;5134225;28;19927;-39
2022/01/20 09:43:11;;;;;;;;;;;22.00;45.50;;;;;;5133505;28;19981;-39
2022/01/20 09:45:41;;;;;;;;;;;22.00;45.40;;;;;;5114038;28;19956;-39
2022/01/20 09:48:09;;;;;;;;;;;22.00;45.40;;;;;;5113331;28;20022;-38
2022/01/20 09:50:36;;;;;;;;;;;22.00;45.40;;;;;;5113156;28;19928;-40
2022/01/20 09:53:04;;;;;;;;;;;22.10;45.40;;;;;;5112295;28;19973;-39
2022/01/20 09:55:32;;;;;;;;;;;22.10;45.40;;;;;;5113571;28;19930;-38
2022/01/20 09:57:59;;;;;;;;;;;22.10;45.30;;;;;;5113618;28;20014;-39
2022/01/20 10:00:26;;;;;;;;;;;22.10;45.20;;;;;;5127834;28;19978;-40
2022/01/20 10:02:53;;;;;;;;;;;22.10;45.20;;;;;;5133851;28;19968;-41
2022/01/20 10:05:27;;;;;;;;;;;22.10;45.20;;;;;;5133564;27;20359;-39
2022/01/20 10:08:04;;;;;;;;;;;22.10;45.10;;;;;;5137250;27;20301;-40
2022/01/20 10:10:41;;;;;;;;;;;22.10;45.10;;;;;;5137863;27;19943;-39
2022/01/20 10:13:09;;;;;;;;;;;22.20;45.20;;;;;;5137557;27;20017;-38
2022/01/20 10:15:36;;;;;;;;;;;22.20;45.10;;;;;;5135632;27;19927;-39
2022/01/20 10:18:04;;;;;;;;;;;22.20;45.10;;;;;;5137521;27;20313;-41
2022/01/20 10:20:31;;;;;;;;;;;22.20;45.00;;;;;;5137266;27;19923;-38
2022/01/20 10:22:58;;;;;;;;;;;22.20;44.90;;;;;;5136903;27;19923;-39
2022/01/20 10:25:32;;;;;;;;;;;22.20;44.90;;;;;;5118629;27;20454;-38
2022/01/20 10:27:59;;;;;;;;;;;22.20;44.80;;;;;;5137270;27;19930;-41
2022/01/20 10:30:27;;;;;;;;;;;22.20;44.80;;;;;;5136139;27;19974;-39
2022/01/20 10:32:55;;;;;;;;;;;22.20;44.80;;;;;;5137550;27;19992;-41
2022/01/20 10:35:27;;;;;;;;;;;22.20;44.80;;;;;;5136939;27;19924;-40
2022/01/20 10:37:57;;;;;;;;;;;22.20;44.80;;;;;;5101632;27;19923;-39
2022/01/20 10:40:25;;;;;;;;;;;22.20;44.80;;;;;;5136989;27;19930;-40
2022/01/20 10:42:52;;;;;;;;;;;22.30;44.70;;;;;;5137258;27;19974;-40
2022/01/20 10:45:23;;;;;;;;;;;22.30;44.80;;;;;;5135444;27;19923;-39
2022/01/20 10:47:51;;;;;;;;;;;22.30;44.70;;;;;;5118058;27;19924;-43
2022/01/20 10:50:21;;;;;;;;;;;22.30;44.70;;;;;;5136333;27;19924;-47
2022/01/20 10:52:49;;;;;;;;;;;22.30;44.60;;;;;;5136793;27;20011;-42
2022/01/20 10:55:22;;;;;;;;;;;22.40;44.60;;;;;;5136951;27;19962;-46
2022/01/20 10:57:56;;;;;;;;;;;22.40;44.50;;;;;;5137158;27;19978;-40
2022/01/20 11:00:25;;;;;;;;;;;22.40;44.50;;;;;;5135911;27;20071;-42
2022/01/20 11:02:54;;;;;;;;;;;22.40;44.40;;;;;;5136813;27;19976;-43
2022/01/20 11:05:22;;;;;;;;;;;22.40;44.30;;;;;;5137031;27;19924;-39
2022/01/20 11:07:49;;;;;;;;;;;22.40;44.30;;;;;;5136657;27;19989;-40
2022/01/20 11:10:17;;;;;;;;;;;22.50;44.30;;;;;;5136426;27;19970;-45
2022/01/20 11:12:44;;;;;;;;;;;22.50;44.30;;;;;;5136540;27;20363;-39
2022/01/20 11:15:14;;;;;;;;;;;22.40;44.20;;;;;;5135610;27;19923;-41
2022/01/20 11:17:42;;;;;;;;;;;22.50;44.30;;;;;;5135664;27;20017;-40
2022/01/20 11:20:15;;;;;;;;;;;22.50;44.20;;;;;;5136417;27;19923;-41
2022/01/20 11:23:08;;;;;;;;;;;22.50;44.20;;;;;;5136644;27;20431;-42
2022/01/20 11:25:37;;;;;;;;;;;22.50;44.20;;;;;;5132098;27;19934;-41
2022/01/20 11:28:09;;;;;;;;;;;22.50;44.20;;;;;;5136320;27;19924;-42
2022/01/20 11:30:39;;;;;;;;;;;22.50;44.10;;;;;;5135422;27;19927;-40
2022/01/20 11:33:08;;;;;;;;;;;22.50;44.10;;;;;;5136606;27;19927;-39
2022/01/20 11:35:46;;;;;;;;;;;22.50;44.10;;;;;;5136468;27;20379;-42
2022/01/20 11:38:15;;;;;;;;;;;22.50;44.10;;;;;;5136423;27;19930;-44
2022/01/20 11:40:49;;;;;;;;;;;22.50;44.10;;;;;;5136392;27;20336;-43
2022/01/20 11:43:16;;;;;;;;;;;22.50;44.00;;;;;;5136340;27;19931;-41
2022/01/20 11:45:47;;;;;;;;;;;22.50;44.10;;;;;;5135177;27;19923;-42
2022/01/20 11:48:19;;;;;;;;;;;22.50;44.00;;;;;;5135878;27;20018;-41
2022/01/20 11:50:47;;;;;;;;;;;22.50;44.00;;;;;;5137028;27;20006;-42
2022/01/20 11:53:15;;;;;;;;;;;22.50;44.00;;;;;;5135635;27;19924;-40
2022/01/20 11:55:44;;;;;;;;;;;22.50;44.00;;;;;;5135787;27;19923;-42
2022/01/20 11:58:12;;;;;;;;;;;22.50;44.00;;;;;;5136007;27;20324;-39
2022/01/20 12:00:40;;;;;;;;;;;22.50;44.00;;;;;;5134799;27;19924;-39
2022/01/20 12:03:13;;;;;;;;;;;22.50;44.00;;;;;;5135642;27;20386;-41
2022/01/20 12:05:40;;;;;;;;;;;22.50;44.00;;;;;;5135948;27;19923;-40
2022/01/20 12:08:12;;;;;;;;;;;22.50;44.00;;;;;;5118217;27;19923;-41
2022/01/20 12:10:40;;;;;;;;;;;22.50;43.90;;;;;;5136128;27;20018;-39
2022/01/20 12:13:08;;;;;;;;;;;22.60;44.00;;;;;;5135456;27;19923;-42
2022/01/20 12:15:55;;;;;;;;;;;22.60;43.90;;;;;;5134233;27;19937;-42
2022/01/20 12:18:22;;;;;;;;;;;22.60;43.80;;;;;;5135193;27;19924;-39
2022/01/20 12:20:49;;;;;;;;;;;22.60;43.80;;;;;;5135233;27;19965;-40
2022/01/20 12:23:17;;;;;;;;;;;22.60;43.80;;;;;;5135008;27;19928;-42
2022/01/20 12:25:45;;;;;;;;;;;22.60;43.80;;;;;;5135364;27;19959;-44
2022/01/20 12:28:15;;;;;;;;;;;22.70;43.80;;;;;;5135475;27;19923;-39
2022/01/20 12:30:50;;;;;;;;;;;22.70;43.80;;;;;;5133764;27;19923;-41
2022/01/20 12:33:21;;;;;;;;;;;22.70;43.80;;;;;;5135119;27;20443;-40
2022/01/20 12:35:50;;;;;;;;;;;22.70;43.80;;;;;;5135310;27;20298;-40
2022/01/20 12:38:17;;;;;;;;;;;22.70;43.80;;;;;;5134895;27;19923;-40
2022/01/20 12:40:48;;;;;;;;;;;22.70;43.80;;;;;;5135262;27;19984;-39
2022/01/20 12:43:16;;;;;;;;;;;22.70;43.80;;;;;;5135259;27;20446;-40
2022/01/20 12:45:57;;;;;;;;;;;22.70;43.70;;;;;;5134162;27;20537;-41
2022/01/20 12:48:24;;;;;;;;;;;22.70;43.70;;;;;;5134797;27;19924;-40
2022/01/20 12:50:54;;;;;;;;;;;22.70;43.70;;;;;;5135175;27;19992;-45
2022/01/20 12:53:57;;;;;;;;;;;22.70;43.70;;;;;;5134934;27;19924;-41
2022/01/20 12:56:28;;;;;;;;;;;22.70;43.70;;;;;;5031838;28;20337;-40
2022/01/20 12:58:56;;;;;;;;;;;22.70;43.70;;;;;;5031689;28;19936;-41
2022/01/20 13:01:23;;;;;;;;;;;22.70;43.60;;;;;;5030849;28;20409;-43
2022/01/20 13:03:50;;;;;;;;;;;22.70;43.60;;;;;;5031661;28;19925;-39
2022/01/20 13:06:26;;;;;;;;;;;22.70;43.60;;;;;;5031620;28;20008;-41
2022/01/20 13:09:06;;;;;;;;;;;22.70;43.70;;;;;;5031677;28;20367;-42
2022/01/20 13:11:39;;;;;;;;;;;22.70;43.60;;;;;;5031603;28;19972;-39
2022/01/20 13:14:06;;;;;;;;;;;22.80;43.70;;;;;;5031849;28;19929;-39
2022/01/20 13:16:58;;;;;;;;;;;22.70;43.60;;;;;;5030642;28;19926;-39
2022/01/20 13:19:35;;;;;;;;;;;22.80;43.80;;;;;;5026468;28;19925;-40
2022/01/20 13:22:05;;;;;;;;;;;22.80;43.70;;;;;;5011628;28;19956;-42
2022/01/20 13:24:33;;;;;;;;;;;22.80;43.70;;;;;;5011755;28;19957;-41
2022/01/20 13:27:00;;;;;;;;;;;22.80;43.70;;;;;;5011743;28;19961;-40
2022/01/20 13:29:38;;;;;;;;;;;22.80;43.70;;;;;;5011671;28;19925;-39
2022/01/20 13:32:06;;;;;;;;;;;22.80;43.70;;;;;;5031003;28;19935;-42
2022/01/20 13:34:34;;;;;;;;;;;22.80;43.70;;;;;;5094410;28;19970;-39
2022/01/20 13:37:01;;;;;;;;;;;22.80;43.70;;;;;;5093456;28;19931;-39
2022/01/20 13:39:30;;;;;;;;;;;22.80;44.30;;;;;;5093781;28;20337;-41
2022/01/20 13:45:13;;;;;;;;;;;22.80;43.70;;;;;;5097653;28;20015;-39
2022/01/20 13:47:48;;;;;;;;;;;22.80;43.70;;;;;;5110925;28;19923;-40
2022/01/20 13:50:17;;;;;;;;;;;22.80;43.70;;;;;;5117671;28;19930;-39
2022/01/20 13:52:44;;;;;;;;;;;22.80;43.70;;;;;;5117463;28;19971;-41
2022/01/20 13:55:18;;;;;;;;;;;22.80;43.70;;;;;;5117578;28;19923;-41
2022/01/20 13:57:45;;;;;;;;;;;22.80;43.70;;;;;;5117776;28;19967;-41
2022/01/20 14:00:14;;;;;;;;;;;22.80;43.70;;;;;;5117493;28;19963;-40
2022/01/20 14:02:47;;;;;;;;;;;22.80;43.70;;;;;;5086617;28;19959;-40
2022/01/20 14:05:15;;;;;;;;;;;22.80;43.70;;;;;;5097099;28;20023;-41
2022/01/20 14:07:42;;;;;;;;;;;22.80;43.70;;;;;;5097274;28;19978;-42
2022/01/20 14:10:09;;;;;;;;;;;22.80;43.70;;;;;;5097226;28;19923;-42
2022/01/20 14:12:36;;;;;;;;;;;22.80;43.70;;;;;;5078927;28;20011;-39
2022/01/20 14:15:04;;;;;;;;;;;22.80;43.80;;;;;;5096847;28;19967;-40
2022/01/20 14:17:35;;;;;;;;;;;22.80;43.80;;;;;;5105611;28;19924;-42
2022/01/20 14:20:07;;;;;;;;;;;22.80;43.80;;;;;;5126770;27;19972;-41
2022/01/20 14:22:34;;;;;;;;;;;22.80;43.80;;;;;;5137455;27;19935;-45
2022/01/20 14:25:02;;;;;;;;;;;22.80;43.80;;;;;;5119427;27;20382;-42
2022/01/20 14:27:29;;;;;;;;;;;22.80;43.80;;;;;;5137856;27;19966;-44
2022/01/20 14:29:56;;;;;;;;;;;22.80;43.80;;;;;;5137496;27;19971;-43
2022/01/20 14:32:23;;;;;;;;;;;22.80;43.80;;;;;;5136337;27;19962;-41
2022/01/20 14:34:50;;;;;;;;;;;22.80;43.80;;;;;;5137739;27;20035;-44
2022/01/20 14:37:17;;;;;;;;;;;22.80;43.80;;;;;;5119556;27;19927;-44
2022/01/20 14:39:44;;;;;;;;;;;22.80;43.90;;;;;;5137644;27;20287;-42
2022/01/20 14:42:13;;;;;;;;;;;22.80;43.80;;;;;;5137294;27;20010;-43
2022/01/20 14:44:44;;;;;;;;;;;22.80;43.90;;;;;;5137555;27;20327;-40
2022/01/20 14:47:17;;;;;;;;;;;22.80;43.80;;;;;;5131921;27;19927;-40
2022/01/20 14:49:44;;;;;;;;;;;22.80;43.80;;;;;;5119250;27;20395;-41
2022/01/20 14:52:11;;;;;;;;;;;22.80;43.80;;;;;;5137097;27;20287;-41
2022/01/20 14:54:37;;;;;;;;;;;22.80;43.80;;;;;;5137311;27;19963;-40
2022/01/20 14:57:05;;;;;;;;;;;22.80;43.80;;;;;;5136950;27;19930;-41
2022/01/20 14:59:33;;;;;;;;;;;22.80;44.40;;;;;;5137164;27;20010;-40
2022/01/20 15:02:01;;;;;;;;;;;22.80;43.90;;;;;;5134582;27;19959;-40
2022/01/20 15:04:29;;;;;;;;;;;22.80;43.90;;;;;;5117146;28;19967;-41
2022/01/20 15:06:56;;;;;;;;;;;22.80;43.90;;;;;;5098287;28;19930;-40
2022/01/20 15:09:23;;;;;;;;;;;22.80;44.00;;;;;;5116523;28;19969;-41
2022/01/20 15:11:50;;;;;;;;;;;22.80;44.00;;;;;;5116452;28;20003;-41
2022/01/20 15:14:17;;;;;;;;;;;22.80;44.00;;;;;;5116089;28;19974;-41
2022/01/20 15:16:44;;;;;;;;;;;22.80;44.00;;;;;;5116187;28;20002;-39
2022/01/20 15:19:10;;;;;;;;;;;22.80;44.10;;;;;;5133634;27;19923;-39
2022/01/20 15:21:37;;;;;;;;;;;22.80;44.10;;;;;;5136356;27;19988;-45
2022/01/20 15:24:06;;;;;;;;;;;22.70;44.00;;;;;;5136483;27;19927;-42
2022/01/20 15:26:33;;;;;;;;;;;22.80;44.10;;;;;;5136451;27;20383;-39
2022/01/20 15:29:00;;;;;;;;;;;22.80;44.20;;;;;;5136701;27;20340;-42
2022/01/20 15:31:29;;;;;;;;;;;22.70;44.10;;;;;;5136577;27;19927;-39
2022/01/20 15:33:57;;;;;;;;;;;22.70;44.20;;;;;;5135122;27;19924;-39